createdAt,value
2023-04-30T00:00:36.986Z,11.91
2023-04-30T00:01:38.996Z,11.91
2023-04-30T00:02:40.888Z,11.92
2023-04-30T00:03:42.972Z,11.94
2023-04-30T00:04:45.080Z,11.94
2023-04-30T00:05:50.266Z,11.93
2023-04-30T00:06:52.138Z,11.95
2023-04-30T00:07:54.040Z,11.96
2023-04-30T00:08:55.944Z,11.95
2023-04-30T00:09:58.181Z,11.95
2023-04-30T00:11:00.019Z,11.95
2023-04-30T00:12:02.037Z,11.92
2023-04-30T00:13:03.881Z,11.85
2023-04-30T00:14:05.709Z,11.80
2023-04-30T00:15:07.860Z,11.79
2023-04-30T00:16:10.010Z,11.75
2023-04-30T00:17:11.864Z,11.76
2023-04-30T00:18:13.751Z,11.78
2023-04-30T00:19:15.694Z,11.80
2023-04-30T00:20:18.203Z,11.82
2023-04-30T00:21:20.111Z,11.86
2023-04-30T00:22:22.055Z,11.86
2023-04-30T00:23:23.885Z,11.81
2023-04-30T00:24:25.728Z,11.76
2023-04-30T00:25:27.594Z,11.71
2023-04-30T00:26:29.423Z,11.71
2023-04-30T00:27:32.212Z,11.72
2023-04-30T00:28:34.058Z,11.69
2023-04-30T00:29:36.029Z,11.69
2023-04-30T00:30:37.888Z,11.70
2023-04-30T00:31:39.832Z,11.69
2023-04-30T00:32:41.722Z,11.70
2023-04-30T00:33:43.636Z,11.73
2023-04-30T00:34:46.260Z,11.77
2023-04-30T00:35:48.087Z,11.75
2023-04-30T00:36:49.971Z,11.73
2023-04-30T00:37:51.821Z,11.71
2023-04-30T00:38:53.786Z,11.70
2023-04-30T00:39:55.827Z,11.70
2023-04-30T00:40:57.916Z,11.72
2023-04-30T00:41:59.776Z,11.72
2023-04-30T00:43:01.822Z,11.74
2023-04-30T00:44:03.695Z,11.62
2023-04-30T00:45:05.847Z,11.60
2023-04-30T00:46:07.758Z,11.60
2023-04-30T00:47:09.629Z,11.55
2023-04-30T00:48:11.626Z,11.53
2023-04-30T00:49:13.701Z,11.46
2023-04-30T00:50:16.377Z,11.41
2023-04-30T00:51:18.415Z,11.41
2023-04-30T00:52:20.300Z,11.43
2023-04-30T00:53:22.320Z,11.44
2023-04-30T00:54:24.885Z,11.47
2023-04-30T00:55:27.105Z,11.50
2023-04-30T00:56:29.412Z,11.53
2023-04-30T00:57:31.415Z,11.50
2023-04-30T00:58:33.871Z,11.51
2023-04-30T00:59:35.919Z,11.45
2023-04-30T01:00:37.721Z,11.41
2023-04-30T01:01:39.961Z,11.40
2023-04-30T01:02:41.903Z,11.36
2023-04-30T01:03:43.999Z,11.37
2023-04-30T01:04:46.850Z,11.38
2023-04-30T01:05:48.824Z,11.31
2023-04-30T01:06:50.850Z,11.31
2023-04-30T01:07:54.304Z,11.30
2023-04-30T01:08:57.618Z,11.29
2023-04-30T01:09:59.621Z,11.28
2023-04-30T01:11:13.832Z,11.24
2023-04-30T01:12:21.779Z,11.27
2023-04-30T01:13:30.489Z,11.28
2023-04-30T01:14:38.463Z,11.19
2023-04-30T01:15:46.654Z,11.21
2023-04-30T01:17:06.228Z,11.25
2023-04-30T01:18:19.152Z,11.29
2023-04-30T01:19:29.795Z,11.32
2023-04-30T01:20:32.567Z,11.38
2023-04-30T01:21:36.855Z,11.37
2023-04-30T01:22:58.897Z,11.34
2023-04-30T01:24:16.367Z,11.30
2023-04-30T01:25:18.307Z,11.32
2023-04-30T01:26:26.317Z,11.33
2023-04-30T01:27:46.970Z,11.28
2023-04-30T01:28:50.634Z,11.31
2023-04-30T01:29:53.763Z,11.34
2023-04-30T01:30:56.131Z,11.36
2023-04-30T01:31:58.008Z,11.39
2023-04-30T01:33:00.077Z,11.38
2023-04-30T01:34:01.956Z,11.37
2023-04-30T01:35:03.926Z,11.35
2023-04-30T01:36:09.132Z,11.32
2023-04-30T01:37:43.887Z,11.37
2023-04-30T01:38:52.803Z,11.40
2023-04-30T01:40:02.429Z,11.43
2023-04-30T01:41:19.749Z,11.46
2023-04-30T01:42:22.698Z,11.48
2023-04-30T01:43:53.532Z,11.50
2023-04-30T01:45:01.241Z,11.53
2023-04-30T01:46:03.146Z,11.54
2023-04-30T01:47:06.865Z,11.52
2023-04-30T01:48:19.158Z,11.49
2023-04-30T01:49:43.006Z,11.49
2023-04-30T01:50:49.740Z,11.49
2023-04-30T01:51:56.320Z,11.49
2023-04-30T01:53:02.503Z,11.51
2023-04-30T01:54:09.522Z,11.53
2023-04-30T01:55:16.930Z,11.51
2023-04-30T01:56:21.943Z,11.47
2023-04-30T01:57:32.748Z,11.48
2023-04-30T01:58:35.867Z,11.46
2023-04-30T01:59:39.496Z,11.45
2023-04-30T02:00:41.689Z,11.46
2023-04-30T02:01:43.550Z,11.45
2023-04-30T02:02:45.747Z,11.45
2023-04-30T02:03:47.730Z,11.44
2023-04-30T02:04:49.987Z,11.44
2023-04-30T02:05:51.785Z,11.43
2023-04-30T02:06:53.737Z,11.45
2023-04-30T02:07:55.652Z,11.46
2023-04-30T02:09:02.745Z,11.48
2023-04-30T02:10:05.415Z,11.49
2023-04-30T02:11:07.221Z,11.49
2023-04-30T02:12:09.089Z,11.50
2023-04-30T02:13:11.034Z,11.48
2023-04-30T02:14:12.845Z,11.49
2023-04-30T02:15:15.489Z,11.49
2023-04-30T02:16:17.394Z,11.51
2023-04-30T02:17:19.303Z,11.52
2023-04-30T02:18:21.261Z,11.52
2023-04-30T02:19:23.118Z,11.48
2023-04-30T02:20:25.097Z,11.46
2023-04-30T02:21:27.629Z,11.43
2023-04-30T02:22:29.502Z,11.41
2023-04-30T02:23:31.304Z,11.41
2023-04-30T02:24:33.180Z,11.40
2023-04-30T02:25:38.134Z,11.38
2023-04-30T02:26:39.958Z,11.38
2023-04-30T02:27:41.914Z,11.38
2023-04-30T02:28:43.801Z,11.39
2023-04-30T02:29:45.734Z,11.40
2023-04-30T02:30:47.593Z,11.40
2023-04-30T02:31:49.562Z,11.42
2023-04-30T02:32:51.436Z,11.45
2023-04-30T02:33:53.538Z,11.45
2023-04-30T02:34:55.425Z,11.45
2023-04-30T02:35:58.682Z,11.46
2023-04-30T02:37:01.171Z,11.47
2023-04-30T02:38:03.024Z,11.46
2023-04-30T02:39:05.234Z,11.45
2023-04-30T02:40:07.586Z,11.44
2023-04-30T02:41:09.517Z,11.45
2023-04-30T02:42:11.474Z,11.45
2023-04-30T02:43:13.242Z,11.45
2023-04-30T02:44:15.113Z,11.45
2023-04-30T02:45:16.931Z,11.43
2023-04-30T02:46:19.495Z,11.43
2023-04-30T02:47:21.515Z,11.43
2023-04-30T02:48:23.349Z,11.39
2023-04-30T02:49:25.152Z,11.37
2023-04-30T02:50:27.017Z,11.35
2023-04-30T02:51:29.005Z,11.33
2023-04-30T02:52:30.827Z,11.31
2023-04-30T02:53:32.684Z,11.27
2023-04-30T02:54:34.481Z,11.26
2023-04-30T02:55:36.471Z,11.26
2023-04-30T02:56:39.698Z,11.25
2023-04-30T02:57:41.768Z,11.24
2023-04-30T02:58:43.684Z,11.21
2023-04-30T02:59:46.531Z,11.20
2023-04-30T03:00:48.444Z,11.20
2023-04-30T03:01:50.438Z,11.21
2023-04-30T03:02:52.474Z,11.21
2023-04-30T03:03:54.479Z,11.21
2023-04-30T03:04:56.331Z,11.24
2023-04-30T03:05:59.769Z,11.26
2023-04-30T03:07:01.801Z,11.27
2023-04-30T03:08:03.666Z,11.26
2023-04-30T03:09:05.628Z,11.22
2023-04-30T03:10:07.931Z,11.16
2023-04-30T03:11:09.793Z,11.14
2023-04-30T03:12:11.757Z,11.15
2023-04-30T03:13:13.814Z,11.14
2023-04-30T03:14:16.192Z,11.13
2023-04-30T03:15:18.097Z,11.14
2023-04-30T03:16:21.099Z,11.16
2023-04-30T03:17:25.078Z,11.15
2023-04-30T03:18:29.993Z,11.12
2023-04-30T03:19:32.324Z,11.11
2023-04-30T03:20:34.186Z,11.07
2023-04-30T03:21:36.232Z,11.05
2023-04-30T03:22:38.098Z,11.06
2023-04-30T03:23:40.012Z,11.09
2023-04-30T03:24:42.118Z,11.11
2023-04-30T03:25:44.408Z,11.14
2023-04-30T03:26:46.674Z,11.16
2023-04-30T03:27:48.793Z,11.18
2023-04-30T03:28:50.761Z,11.19
2023-04-30T03:29:52.847Z,11.23
2023-04-30T03:30:55.022Z,11.25
2023-04-30T03:31:56.982Z,11.26
2023-04-30T03:32:58.932Z,11.26
2023-04-30T03:34:00.846Z,11.28
2023-04-30T03:35:02.793Z,11.29
2023-04-30T03:36:04.857Z,11.27
2023-04-30T03:37:06.746Z,11.25
2023-04-30T03:38:08.622Z,11.24
2023-04-30T03:39:10.543Z,11.22
2023-04-30T03:40:12.610Z,11.22
2023-04-30T03:41:14.467Z,11.24
2023-04-30T03:42:16.355Z,11.25
2023-04-30T03:43:18.229Z,11.25
2023-04-30T03:44:20.132Z,11.24
2023-04-30T03:45:21.972Z,11.24
2023-04-30T03:46:23.902Z,11.22
2023-04-30T03:47:25.855Z,11.24
2023-04-30T03:48:27.815Z,11.22
2023-04-30T03:49:29.721Z,11.23
2023-04-30T03:50:31.585Z,11.24
2023-04-30T03:51:33.426Z,11.24
2023-04-30T03:52:36.995Z,11.24
2023-04-30T03:53:38.907Z,11.20
2023-04-30T03:54:40.929Z,11.19
2023-04-30T03:55:42.955Z,11.20
2023-04-30T03:56:44.847Z,11.22
2023-04-30T03:57:46.742Z,11.21
2023-04-30T03:58:48.713Z,11.21
2023-04-30T03:59:50.980Z,11.21
2023-04-30T04:00:52.981Z,11.24
2023-04-30T04:01:54.827Z,11.23
2023-04-30T04:02:58.110Z,11.24
2023-04-30T04:04:00.058Z,11.24
2023-04-30T04:05:02.235Z,11.25
2023-04-30T04:06:05.281Z,11.25
2023-04-30T04:07:10.107Z,11.25
2023-04-30T04:08:11.932Z,11.25
2023-04-30T04:09:13.926Z,11.19
2023-04-30T04:10:15.858Z,11.19
2023-04-30T04:11:17.692Z,11.20
2023-04-30T04:12:19.522Z,11.16
2023-04-30T04:13:21.484Z,11.15
2023-04-30T04:14:23.458Z,11.16
2023-04-30T04:15:25.310Z,11.16
2023-04-30T04:16:27.257Z,11.15
2023-04-30T04:17:29.218Z,11.15
2023-04-30T04:18:31.168Z,11.14
2023-04-30T04:19:33.099Z,11.16
2023-04-30T04:20:34.991Z,11.18
2023-04-30T04:21:37.140Z,11.18
2023-04-30T04:22:38.956Z,11.18
2023-04-30T04:23:40.828Z,11.18
2023-04-30T04:24:42.790Z,11.18
2023-04-30T04:25:44.649Z,11.18
2023-04-30T04:26:48.121Z,11.15
2023-04-30T04:27:50.082Z,11.12
2023-04-30T04:28:52.310Z,11.12
2023-04-30T04:29:55.369Z,11.13
2023-04-30T04:30:57.959Z,11.15
2023-04-30T04:32:03.317Z,11.17
2023-04-30T04:33:06.344Z,11.18
2023-04-30T04:34:08.704Z,11.20
2023-04-30T04:35:10.619Z,11.22
2023-04-30T04:36:12.471Z,11.22
2023-04-30T04:37:14.533Z,11.22
2023-04-30T04:38:16.419Z,11.22
2023-04-30T04:39:18.277Z,11.23
2023-04-30T04:40:20.097Z,11.25
2023-04-30T04:41:23.318Z,11.26
2023-04-30T04:42:25.186Z,11.28
2023-04-30T04:43:27.157Z,11.28
2023-04-30T04:44:29.543Z,11.26
2023-04-30T04:45:32.233Z,11.29
2023-04-30T04:46:38.788Z,11.27
2023-04-30T04:47:40.712Z,11.29
2023-04-30T04:48:43.281Z,11.29
2023-04-30T04:49:45.182Z,11.28
2023-04-30T04:50:47.065Z,11.29
2023-04-30T04:51:48.978Z,11.31
2023-04-30T04:52:50.816Z,11.32
2023-04-30T04:53:52.685Z,11.32
2023-04-30T04:54:54.568Z,11.33
2023-04-30T04:55:57.131Z,11.33
2023-04-30T04:56:59.082Z,11.32
2023-04-30T04:58:01.073Z,11.29
2023-04-30T04:59:03.035Z,11.24
2023-04-30T05:00:08.239Z,11.24
2023-04-30T05:01:10.762Z,11.24
2023-04-30T05:02:12.655Z,11.26
2023-04-30T05:03:15.316Z,11.25
2023-04-30T05:04:17.228Z,11.27
2023-04-30T05:05:19.139Z,11.29
2023-04-30T05:06:21.130Z,11.30
2023-04-30T05:07:23.074Z,11.33
2023-04-30T05:08:25.137Z,11.32
2023-04-30T05:09:26.987Z,11.31
2023-04-30T05:10:28.884Z,11.28
2023-04-30T05:11:30.844Z,11.28
2023-04-30T05:12:32.842Z,11.28
2023-04-30T05:13:34.692Z,11.29
2023-04-30T05:14:37.680Z,11.30
2023-04-30T05:15:39.524Z,11.32
2023-04-30T05:16:41.510Z,11.30
2023-04-30T05:17:43.557Z,11.29
2023-04-30T05:18:45.393Z,11.29
2023-04-30T05:19:49.310Z,11.31
2023-04-30T05:20:51.195Z,11.33
2023-04-30T05:21:53.146Z,11.37
2023-04-30T05:22:55.122Z,11.39
2023-04-30T05:23:57.008Z,11.40
2023-04-30T05:24:58.791Z,11.43
2023-04-30T05:26:00.778Z,11.44
2023-04-30T05:27:05.894Z,11.47
2023-04-30T05:28:07.792Z,11.50
2023-04-30T05:29:10.842Z,11.50
2023-04-30T05:30:12.815Z,11.54
2023-04-30T05:31:14.690Z,11.54
2023-04-30T05:32:16.725Z,11.54
2023-04-30T05:33:18.663Z,11.53
2023-04-30T05:34:20.473Z,11.44
2023-04-30T05:35:22.393Z,11.44
2023-04-30T05:36:24.293Z,11.46
2023-04-30T05:37:26.203Z,11.47
2023-04-30T05:38:28.393Z,11.48
2023-04-30T05:39:30.220Z,11.50
2023-04-30T05:40:32.375Z,11.51
2023-04-30T05:41:34.242Z,11.49
2023-04-30T05:42:36.658Z,11.50
2023-04-30T05:43:38.604Z,11.50
2023-04-30T05:44:41.403Z,11.50
2023-04-30T05:45:43.388Z,11.46
2023-04-30T05:46:45.295Z,11.43
2023-04-30T05:47:47.239Z,11.44
2023-04-30T05:48:49.181Z,11.49
2023-04-30T05:49:51.102Z,11.50
2023-04-30T05:50:52.925Z,11.52
2023-04-30T05:51:54.750Z,11.54
2023-04-30T05:52:56.644Z,11.51
2023-04-30T05:53:58.581Z,11.50
2023-04-30T05:55:00.445Z,11.49
2023-04-30T05:56:02.585Z,11.51
2023-04-30T05:57:04.566Z,11.51
2023-04-30T05:58:06.777Z,11.53
2023-04-30T05:59:08.661Z,11.54
2023-04-30T06:00:11.167Z,11.56
2023-04-30T06:01:13.137Z,11.56
2023-04-30T06:02:15.301Z,11.54
2023-04-30T06:03:17.314Z,11.56
2023-04-30T06:04:19.224Z,11.55
2023-04-30T06:05:21.222Z,11.56
2023-04-30T06:06:23.152Z,11.55
2023-04-30T06:07:25.053Z,11.57
2023-04-30T06:08:26.854Z,11.59
2023-04-30T06:09:28.785Z,11.57
2023-04-30T06:10:31.133Z,11.57
2023-04-30T06:11:33.024Z,11.58
2023-04-30T06:12:34.926Z,11.57
2023-04-30T06:13:36.978Z,11.59
2023-04-30T06:14:38.974Z,11.61
2023-04-30T06:15:42.029Z,11.63
2023-04-30T06:16:45.431Z,11.66
2023-04-30T06:17:47.395Z,11.65
2023-04-30T06:18:50.363Z,11.64
2023-04-30T06:19:53.406Z,11.65
2023-04-30T06:20:55.434Z,11.65
2023-04-30T06:21:57.295Z,11.68
2023-04-30T06:23:00.331Z,11.70
2023-04-30T06:24:02.148Z,11.71
2023-04-30T06:25:04.181Z,11.73
2023-04-30T06:26:06.096Z,11.75
2023-04-30T06:27:08.008Z,11.76
2023-04-30T06:28:10.336Z,11.77
2023-04-30T06:29:12.212Z,11.76
2023-04-30T06:30:14.106Z,11.75
2023-04-30T06:31:16.225Z,11.77
2023-04-30T06:32:18.141Z,11.77
2023-04-30T06:33:20.125Z,11.79
2023-04-30T06:34:22.086Z,11.81
2023-04-30T06:35:24.781Z,11.84
2023-04-30T06:36:26.661Z,11.86
2023-04-30T06:37:28.614Z,11.88
2023-04-30T06:38:30.408Z,11.88
2023-04-30T06:39:32.248Z,11.90
2023-04-30T06:40:34.262Z,11.91
2023-04-30T06:41:36.223Z,11.96
2023-04-30T06:42:38.100Z,11.97
2023-04-30T06:43:39.956Z,11.99
2023-04-30T06:44:41.829Z,11.99
2023-04-30T06:45:43.941Z,11.99
2023-04-30T06:46:45.968Z,12.00
2023-04-30T06:47:48.163Z,11.99
2023-04-30T06:48:50.085Z,12.01
2023-04-30T06:49:51.892Z,12.02
2023-04-30T06:50:53.726Z,12.04
2023-04-30T06:51:56.907Z,12.04
2023-04-30T06:52:58.806Z,12.03
2023-04-30T06:54:01.087Z,12.00
2023-04-30T06:55:03.051Z,11.98
2023-04-30T06:56:05.028Z,11.99
2023-04-30T06:57:07.427Z,11.99
2023-04-30T06:58:09.325Z,12.00
2023-04-30T06:59:11.090Z,12.02
2023-04-30T07:00:15.403Z,12.04
2023-04-30T07:01:17.888Z,12.06
2023-04-30T07:02:21.945Z,12.07
2023-04-30T07:03:24.358Z,12.10
2023-04-30T07:04:26.561Z,12.09
2023-04-30T07:05:28.782Z,12.10
2023-04-30T07:06:30.933Z,12.09
2023-04-30T07:07:32.969Z,12.10
2023-04-30T07:08:34.795Z,12.12
2023-04-30T07:09:36.806Z,12.15
2023-04-30T07:10:38.675Z,12.17
2023-04-30T07:11:40.567Z,12.19
2023-04-30T07:12:42.581Z,12.22
2023-04-30T07:13:44.725Z,12.18
2023-04-30T07:14:46.605Z,12.16
2023-04-30T07:15:48.548Z,12.14
2023-04-30T07:16:51.092Z,12.12
2023-04-30T07:17:53.091Z,12.16
2023-04-30T07:18:55.012Z,12.19
2023-04-30T07:19:57.189Z,12.18
2023-04-30T07:20:59.347Z,12.16
2023-04-30T07:22:01.447Z,12.16
2023-04-30T07:23:03.495Z,12.19
2023-04-30T07:24:05.646Z,12.19
2023-04-30T07:25:07.929Z,12.23
2023-04-30T07:26:09.820Z,12.20
2023-04-30T07:27:11.975Z,12.13
2023-04-30T07:28:13.810Z,12.10
2023-04-30T07:29:15.788Z,12.12
2023-04-30T07:30:17.763Z,12.18
2023-04-30T07:31:19.692Z,12.21
2023-04-30T07:32:22.590Z,12.28
2023-04-30T07:33:24.585Z,12.32
2023-04-30T07:34:26.954Z,12.37
2023-04-30T07:35:28.900Z,12.38
2023-04-30T07:36:31.268Z,12.40
2023-04-30T07:37:35.466Z,12.41
2023-04-30T07:38:37.926Z,12.45
2023-04-30T07:39:39.979Z,12.48
2023-04-30T07:40:41.835Z,12.50
2023-04-30T07:41:43.772Z,12.51
2023-04-30T07:42:45.704Z,12.50
2023-04-30T07:43:47.632Z,12.53
2023-04-30T07:44:49.536Z,12.56
2023-04-30T07:45:51.480Z,12.60
2023-04-30T07:46:53.393Z,12.65
2023-04-30T07:47:55.322Z,12.67
2023-04-30T07:48:57.272Z,12.72
2023-04-30T07:49:59.233Z,12.72
2023-04-30T07:51:01.323Z,12.72
2023-04-30T07:52:03.856Z,12.74
2023-04-30T07:53:09.955Z,12.78
2023-04-30T07:54:11.850Z,12.81
2023-04-30T07:55:13.759Z,12.83
2023-04-30T07:56:16.410Z,12.85
2023-04-30T07:57:18.382Z,12.86
2023-04-30T07:58:20.210Z,12.92
2023-04-30T07:59:24.688Z,12.96
2023-04-30T08:00:26.788Z,13.01
2023-04-30T08:01:28.923Z,13.04
2023-04-30T08:02:31.149Z,13.09
2023-04-30T08:03:33.602Z,13.14
2023-04-30T08:04:35.818Z,13.14
2023-04-30T08:05:37.652Z,13.17
2023-04-30T08:06:39.651Z,13.19
2023-04-30T08:07:42.156Z,13.21
2023-04-30T08:08:44.046Z,13.23
2023-04-30T08:09:46.186Z,13.25
2023-04-30T08:10:48.000Z,13.30
2023-04-30T08:11:49.906Z,13.31
2023-04-30T08:12:51.961Z,13.33
2023-04-30T08:13:54.301Z,13.34
2023-04-30T08:15:04.448Z,13.35
2023-04-30T08:16:06.383Z,13.40
2023-04-30T08:17:08.224Z,13.45
2023-04-30T08:18:10.168Z,13.50
2023-04-30T08:19:12.247Z,13.53
2023-04-30T08:20:14.244Z,13.54
2023-04-30T08:21:18.265Z,13.57
2023-04-30T08:22:20.111Z,13.58
2023-04-30T08:23:21.940Z,13.58
2023-04-30T08:24:24.078Z,13.59
2023-04-30T08:25:26.142Z,13.60
2023-04-30T08:26:28.105Z,13.60
2023-04-30T08:27:31.859Z,13.63
2023-04-30T08:28:33.667Z,13.68
2023-04-30T08:29:35.611Z,13.71
2023-04-30T08:30:37.516Z,13.74
2023-04-30T08:31:39.470Z,13.75
2023-04-30T08:32:41.804Z,13.77
2023-04-30T08:33:43.724Z,13.78
2023-04-30T08:34:45.618Z,13.79
2023-04-30T08:35:47.640Z,13.84
2023-04-30T08:36:49.580Z,13.87
2023-04-30T08:37:51.815Z,13.82
2023-04-30T08:38:53.732Z,13.79
2023-04-30T08:39:55.875Z,13.82
2023-04-30T08:41:11.867Z,13.83
2023-04-30T08:42:15.317Z,13.89
2023-04-30T08:43:18.639Z,13.92
2023-04-30T08:44:22.170Z,13.94
2023-04-30T08:45:24.541Z,13.94
2023-04-30T08:46:27.282Z,13.93
2023-04-30T08:47:29.396Z,13.94
2023-04-30T08:48:32.098Z,13.93
2023-04-30T08:49:34.022Z,13.91
2023-04-30T08:50:36.022Z,13.94
2023-04-30T08:51:38.724Z,13.93
2023-04-30T08:52:42.487Z,13.92
2023-04-30T08:53:44.954Z,13.91
2023-04-30T08:54:47.975Z,13.88
2023-04-30T08:55:49.817Z,13.83
2023-04-30T08:56:51.787Z,13.83
2023-04-30T08:57:53.907Z,13.84
2023-04-30T08:58:55.790Z,13.89
2023-04-30T08:59:57.799Z,13.88
2023-04-30T09:01:00.223Z,13.89
2023-04-30T09:02:02.596Z,13.89
2023-04-30T09:03:05.248Z,13.91
2023-04-30T09:04:07.293Z,13.88
2023-04-30T09:05:11.703Z,13.92
2023-04-30T09:06:17.649Z,13.96
2023-04-30T09:07:21.055Z,13.98
2023-04-30T09:08:42.264Z,14.02
2023-04-30T09:09:44.118Z,14.08
2023-04-30T09:10:46.786Z,14.06
2023-04-30T09:11:48.610Z,13.99
2023-04-30T09:13:00.642Z,14.01
2023-04-30T09:14:02.742Z,14.03
2023-04-30T09:15:05.751Z,14.07
2023-04-30T09:16:07.730Z,14.11
2023-04-30T09:17:09.621Z,14.13
2023-04-30T09:18:12.019Z,14.17
2023-04-30T09:19:27.412Z,14.17
2023-04-30T09:20:29.610Z,14.21
2023-04-30T09:21:37.419Z,14.24
2023-04-30T09:22:39.914Z,14.29
2023-04-30T09:24:01.808Z,14.28
2023-04-30T09:25:03.837Z,14.32
2023-04-30T09:26:05.745Z,14.35
2023-04-30T09:27:16.157Z,14.37
2023-04-30T09:28:18.918Z,14.35
2023-04-30T09:29:20.823Z,14.35
2023-04-30T09:30:33.161Z,14.36
2023-04-30T09:31:36.633Z,14.45
2023-04-30T09:32:54.914Z,14.48
2023-04-30T09:33:56.814Z,14.50
2023-04-30T09:34:58.739Z,14.49
2023-04-30T09:36:08.815Z,14.47
2023-04-30T09:37:12.014Z,14.46
2023-04-30T09:38:34.269Z,14.50
2023-04-30T09:39:47.073Z,14.49
2023-04-30T09:40:49.360Z,14.55
2023-04-30T09:41:52.346Z,14.60
2023-04-30T09:42:58.929Z,14.61
2023-04-30T09:44:00.929Z,14.66
2023-04-30T09:45:05.077Z,14.66
2023-04-30T09:46:07.042Z,14.68
2023-04-30T09:47:15.563Z,14.65
2023-04-30T09:48:24.051Z,14.63
2023-04-30T09:49:26.802Z,14.63
2023-04-30T09:50:37.434Z,14.59
2023-04-30T09:51:53.879Z,14.61
2023-04-30T09:53:05.557Z,14.64
2023-04-30T09:54:08.195Z,14.69
2023-04-30T09:55:10.285Z,14.72
2023-04-30T09:56:13.291Z,14.75
2023-04-30T09:57:16.430Z,14.78
2023-04-30T09:58:19.168Z,14.82
2023-04-30T09:59:26.858Z,14.84
2023-04-30T10:00:28.778Z,14.78
2023-04-30T10:01:31.143Z,14.80
2023-04-30T10:02:33.821Z,14.84
2023-04-30T10:03:35.912Z,14.87
2023-04-30T10:04:38.573Z,14.89
2023-04-30T10:05:47.484Z,14.94
2023-04-30T10:06:53.077Z,14.93
2023-04-30T10:07:55.419Z,14.96
2023-04-30T10:08:57.941Z,15.00
2023-04-30T10:10:03.696Z,15.02
2023-04-30T10:11:06.436Z,14.95
2023-04-30T10:12:15.036Z,14.99
2023-04-30T10:13:18.676Z,15.00
2023-04-30T10:14:21.519Z,15.02
2023-04-30T10:15:28.920Z,15.02
2023-04-30T10:16:44.140Z,15.02
2023-04-30T10:17:50.845Z,15.04
2023-04-30T10:18:53.582Z,15.06
2023-04-30T10:19:58.109Z,15.08
2023-04-30T10:21:03.502Z,15.09
2023-04-30T10:22:05.489Z,15.08
2023-04-30T10:23:08.810Z,15.08
2023-04-30T10:24:11.883Z,15.08
2023-04-30T10:25:13.838Z,14.99
2023-04-30T10:26:17.208Z,14.96
2023-04-30T10:27:19.494Z,14.99
2023-04-30T10:28:22.496Z,15.06
2023-04-30T10:29:24.326Z,15.18
2023-04-30T10:30:26.465Z,15.25
2023-04-30T10:31:29.449Z,15.24
2023-04-30T10:32:34.664Z,15.32
2023-04-30T10:33:50.131Z,15.46
2023-04-30T10:35:08.514Z,15.62
2023-04-30T10:36:13.652Z,15.94
2023-04-30T10:37:22.865Z,16.00
2023-04-30T10:38:26.943Z,15.99
2023-04-30T10:39:29.516Z,15.95
2023-04-30T10:40:36.069Z,16.07
2023-04-30T10:41:37.929Z,16.15
2023-04-30T10:42:45.544Z,16.13
2023-04-30T10:43:47.703Z,16.09
2023-04-30T10:44:49.634Z,16.05
2023-04-30T10:45:51.942Z,15.99
2023-04-30T10:47:01.226Z,15.95
2023-04-30T10:48:03.506Z,15.87
2023-04-30T10:49:05.690Z,15.86
2023-04-30T10:50:11.056Z,15.84
2023-04-30T10:51:12.952Z,15.79
2023-04-30T10:52:14.854Z,15.74
2023-04-30T10:53:18.769Z,15.75
2023-04-30T10:54:31.596Z,15.76
2023-04-30T10:55:34.178Z,15.76
2023-04-30T10:56:36.800Z,15.73
2023-04-30T10:57:43.245Z,15.69
2023-04-30T10:58:45.747Z,15.70
2023-04-30T10:59:50.675Z,15.71
2023-04-30T11:01:01.314Z,15.68
2023-04-30T11:02:03.760Z,15.71
2023-04-30T11:03:05.914Z,15.76
2023-04-30T11:04:09.132Z,15.86
2023-04-30T11:05:12.412Z,16.26
2023-04-30T11:06:15.656Z,16.66
2023-04-30T11:07:17.577Z,17.05
2023-04-30T11:08:21.397Z,17.40
2023-04-30T11:09:39.532Z,17.62
2023-04-30T11:10:57.314Z,17.94
2023-04-30T11:12:11.039Z,18.27
2023-04-30T11:13:14.362Z,18.39
2023-04-30T11:14:21.073Z,18.49
2023-04-30T11:15:26.566Z,18.59
2023-04-30T11:16:32.221Z,18.49
2023-04-30T11:17:35.058Z,18.28
2023-04-30T11:18:44.545Z,17.97
2023-04-30T11:19:48.513Z,17.79
2023-04-30T11:20:53.757Z,17.71
2023-04-30T11:22:04.777Z,17.66
2023-04-30T11:23:19.719Z,17.59
2023-04-30T11:24:45.571Z,17.38
2023-04-30T11:25:47.964Z,17.15
2023-04-30T11:27:04.097Z,16.95
2023-04-30T11:28:06.168Z,16.80
2023-04-30T11:29:08.038Z,16.78
2023-04-30T11:30:16.181Z,16.71
2023-04-30T11:31:18.639Z,16.73
2023-04-30T11:32:21.747Z,16.72
2023-04-30T11:33:24.390Z,16.75
2023-04-30T11:34:26.840Z,16.76
2023-04-30T11:35:28.986Z,16.78
2023-04-30T11:36:31.194Z,16.76
2023-04-30T11:37:34.234Z,16.76
2023-04-30T11:38:36.796Z,16.77
2023-04-30T11:39:39.978Z,16.78
2023-04-30T11:40:42.898Z,16.79
2023-04-30T11:41:44.828Z,16.80
2023-04-30T11:42:48.615Z,16.80
2023-04-30T11:43:50.449Z,16.80
2023-04-30T11:44:52.392Z,16.75
2023-04-30T11:46:14.670Z,16.76
2023-04-30T11:47:16.495Z,16.77
2023-04-30T11:48:18.423Z,16.71
2023-04-30T11:49:23.078Z,16.68
2023-04-30T11:50:29.754Z,16.70
2023-04-30T11:51:31.832Z,16.78
2023-04-30T11:52:33.652Z,16.87
2023-04-30T11:53:35.620Z,16.94
2023-04-30T11:54:38.308Z,16.91
2023-04-30T11:55:42.190Z,16.92
2023-04-30T11:56:50.300Z,16.98
2023-04-30T11:57:56.262Z,17.06
2023-04-30T11:58:58.273Z,17.13
2023-04-30T12:00:07.877Z,17.24
2023-04-30T12:01:11.126Z,17.40
2023-04-30T12:02:15.850Z,17.67
2023-04-30T12:03:18.004Z,17.78
2023-04-30T12:04:20.331Z,17.98
2023-04-30T12:05:26.983Z,18.03
2023-04-30T12:06:29.522Z,18.03
2023-04-30T12:07:31.545Z,18.01
2023-04-30T12:08:33.443Z,18.02
2023-04-30T12:09:51.992Z,18.04
2023-04-30T12:10:53.976Z,18.05
2023-04-30T12:11:55.845Z,18.10
2023-04-30T12:12:57.690Z,18.18
2023-04-30T12:14:04.194Z,18.17
2023-04-30T12:15:12.971Z,18.19
2023-04-30T12:16:14.917Z,18.54
2023-04-30T12:17:30.833Z,18.85
2023-04-30T12:18:33.631Z,19.14
2023-04-30T12:19:35.431Z,19.37
2023-04-30T12:20:37.850Z,19.67
2023-04-30T12:21:41.491Z,19.98
2023-04-30T12:22:44.236Z,20.27
2023-04-30T12:23:46.133Z,20.18
2023-04-30T12:24:48.087Z,19.95
2023-04-30T12:25:50.006Z,20.02
2023-04-30T12:26:53.748Z,19.94
2023-04-30T12:27:55.941Z,19.90
2023-04-30T12:28:57.818Z,19.80
2023-04-30T12:30:02.615Z,19.67
2023-04-30T12:31:06.940Z,19.59
2023-04-30T12:32:08.908Z,19.58
2023-04-30T12:33:11.569Z,19.62
2023-04-30T12:34:14.354Z,19.57
2023-04-30T12:35:17.368Z,19.66
2023-04-30T12:36:19.311Z,19.80
2023-04-30T12:37:21.238Z,19.98
2023-04-30T12:38:23.791Z,19.89
2023-04-30T12:39:26.422Z,19.87
2023-04-30T12:40:28.570Z,19.89
2023-04-30T12:41:30.472Z,19.81
2023-04-30T12:42:36.028Z,19.73
2023-04-30T12:43:38.087Z,19.70
2023-04-30T12:44:45.178Z,19.67
2023-04-30T12:45:51.957Z,19.69
2023-04-30T12:46:56.659Z,19.73
2023-04-30T12:47:58.539Z,19.74
2023-04-30T12:49:00.913Z,19.66
2023-04-30T12:50:03.756Z,19.70
2023-04-30T12:51:07.045Z,19.99
2023-04-30T12:52:09.977Z,20.16
2023-04-30T12:53:11.933Z,19.93
2023-04-30T12:54:13.812Z,20.05
2023-04-30T12:55:18.832Z,19.91
2023-04-30T12:56:22.829Z,19.86
2023-04-30T12:57:24.710Z,19.61
2023-04-30T12:58:31.233Z,19.64
2023-04-30T12:59:38.336Z,19.63
2023-04-30T13:00:50.300Z,19.84
2023-04-30T13:01:52.413Z,20.22
2023-04-30T13:02:54.350Z,20.37
2023-04-30T13:03:56.541Z,20.52
2023-04-30T13:04:58.519Z,20.89
2023-04-30T13:06:03.066Z,20.84
2023-04-30T13:07:05.388Z,20.65
2023-04-30T13:08:08.043Z,20.67
2023-04-30T13:09:11.142Z,20.61
2023-04-30T13:10:13.838Z,20.48
2023-04-30T13:11:15.790Z,20.34
2023-04-30T13:12:17.759Z,20.13
2023-04-30T13:13:20.661Z,20.13
2023-04-30T13:14:22.492Z,20.11
2023-04-30T13:15:24.423Z,20.11
2023-04-30T13:16:26.621Z,20.10
2023-04-30T13:17:29.271Z,20.02
2023-04-30T13:18:31.186Z,19.86
2023-04-30T13:19:33.230Z,19.78
2023-04-30T13:20:37.732Z,19.56
2023-04-30T13:21:39.541Z,19.44
2023-04-30T13:22:41.409Z,19.38
2023-04-30T13:23:52.102Z,19.35
2023-04-30T13:24:55.683Z,19.37
2023-04-30T13:25:57.596Z,19.61
2023-04-30T13:26:59.596Z,20.01
2023-04-30T13:28:01.590Z,20.32
2023-04-30T13:29:04.494Z,20.56
2023-04-30T13:30:06.696Z,20.48
2023-04-30T13:31:08.655Z,20.51
2023-04-30T13:32:10.565Z,20.75
2023-04-30T13:33:13.037Z,21.09
2023-04-30T13:34:17.958Z,21.35
2023-04-30T13:35:20.002Z,21.57
2023-04-30T13:36:22.118Z,21.84
2023-04-30T13:37:23.959Z,22.00